createdAt,value
2019-05-07T00:02:07.494Z,96.60
2019-05-07T00:04:43.745Z,96.90
2019-05-07T00:07:19.917Z,97.20
2019-05-07T00:09:56.086Z,97.10
2019-05-07T00:12:32.438Z,97.20
2019-05-07T00:15:08.803Z,97.00
2019-05-07T00:17:44.980Z,97.20
2019-05-07T00:20:23.066Z,97.20
2019-05-07T00:22:58.988Z,97.20
2019-05-07T00:25:35.199Z,97.20
2019-05-07T00:28:12.270Z,97.20
2019-05-07T00:30:48.756Z,96.80
2019-05-07T00:33:24.960Z,97.10
2019-05-07T00:36:02.774Z,97.00
2019-05-07T00:38:42.624Z,97.20
2019-05-07T00:41:25.931Z,97.20
2019-05-07T00:44:03.208Z,97.20
2019-05-07T00:46:39.704Z,97.20
2019-05-07T00:49:15.885Z,97.20
2019-05-07T00:51:52.104Z,97.20
2019-05-07T00:54:28.441Z,97.20
2019-05-07T00:57:04.649Z,97.20
2019-05-07T00:59:42.818Z,97.20
2019-05-07T01:02:22.320Z,97.20
2019-05-07T01:04:58.183Z,97.20
2019-05-07T01:07:34.325Z,97.20
2019-05-07T01:10:12.582Z,97.20
2019-05-07T01:12:48.377Z,97.20
2019-05-07T01:15:31.001Z,97.20
2019-05-07T01:18:02.948Z,97.20
2019-05-07T01:20:39.240Z,97.20
2019-05-07T01:23:15.448Z,97.20
2019-05-07T01:25:52.670Z,97.20
2019-05-07T01:28:29.210Z,97.20
2019-05-07T01:31:05.341Z,97.20
2019-05-07T01:33:43.242Z,97.20
2019-05-07T01:36:22.608Z,97.20
2019-05-07T01:38:58.430Z,97.20
2019-05-07T01:41:34.676Z,97.20
2019-05-07T01:44:12.776Z,97.20
2019-05-07T01:46:48.710Z,97.00
2019-05-07T01:49:25.016Z,97.20
2019-05-07T01:52:02.483Z,97.20
2019-05-07T01:54:38.887Z,97.20
2019-05-07T01:57:15.187Z,97.20
2019-05-07T01:59:52.746Z,97.20
2019-05-07T02:02:32.062Z,97.20
2019-05-07T02:05:12.154Z,97.20
2019-05-07T02:07:49.518Z,97.20
2019-05-07T02:10:31.955Z,97.20
2019-05-07T02:13:07.976Z,97.20
2019-05-07T02:15:57.226Z,97.20
2019-05-07T02:18:21.904Z,97.20
2019-05-07T02:20:58.087Z,97.20
2019-05-07T02:23:34.231Z,97.20
2019-05-07T02:26:10.383Z,97.20
2019-05-07T02:28:46.595Z,97.20
2019-05-07T02:31:23.403Z,97.20
2019-05-07T02:34:02.544Z,97.20
2019-05-07T02:36:38.422Z,97.20
2019-05-07T02:39:18.977Z,97.20
2019-05-07T02:41:55.075Z,97.20
2019-05-07T02:44:33.133Z,97.20
2019-05-07T02:47:12.924Z,97.20
2019-05-07T02:49:53.360Z,97.20
2019-05-07T02:52:46.194Z,97.20
2019-05-07T02:55:24.088Z,97.20
2019-05-07T02:58:03.268Z,97.20
2019-05-07T03:00:38.196Z,97.20
2019-05-07T03:03:14.333Z,97.20
2019-05-07T03:05:53.454Z,97.20
2019-05-07T03:08:28.329Z,97.20
2019-05-07T03:11:04.561Z,97.20
2019-05-07T03:13:43.248Z,97.20
2019-05-07T03:16:35.354Z,97.20
2019-05-07T03:18:56.461Z,97.20
2019-05-07T03:21:53.463Z,97.20
2019-05-07T03:24:35.867Z,97.20
2019-05-07T03:27:14.044Z,97.20
2019-05-07T03:29:54.681Z,97.20
2019-05-07T03:32:37.796Z,97.20
2019-05-07T03:35:16.133Z,97.20
2019-05-07T03:37:54.636Z,97.20
2019-05-07T03:40:32.977Z,97.20
2019-05-07T03:43:09.405Z,97.20
2019-05-07T03:46:03.797Z,97.20
2019-05-07T03:48:44.035Z,97.20
2019-05-07T03:51:19.585Z,97.20
2019-05-07T03:53:56.093Z,97.20
2019-05-07T03:56:33.022Z,97.20
2019-05-07T03:59:09.378Z,97.20
2019-05-07T04:01:45.690Z,97.20
2019-05-07T04:04:22.968Z,97.20
2019-05-07T04:06:59.447Z,97.20
2019-05-07T04:09:37.485Z,97.20
2019-05-07T04:12:13.723Z,97.20
2019-05-07T04:14:49.942Z,97.20
2019-05-07T04:17:27.225Z,97.20
2019-05-07T04:20:04.537Z,97.20
2019-05-07T04:22:43.098Z,97.20
2019-05-07T04:25:26.536Z,97.20
2019-05-07T04:28:10.199Z,97.20
2019-05-07T04:30:46.619Z,97.20
2019-05-07T04:33:24.467Z,97.20
2019-05-07T04:36:13.975Z,97.20
2019-05-07T04:38:48.981Z,97.20
2019-05-07T04:41:25.302Z,97.20
2019-05-07T04:44:03.507Z,97.20
2019-05-07T04:46:43.461Z,97.20
2019-05-07T04:49:17.253Z,97.20
2019-05-07T04:52:11.310Z,97.20
2019-05-07T04:54:45.293Z,97.20
2019-05-07T04:57:27.317Z,97.20
2019-05-07T05:00:04.812Z,97.20
2019-05-07T05:02:45.665Z,97.20
2019-05-07T05:05:23.607Z,97.20
2019-05-07T05:08:00.236Z,97.20
2019-05-07T05:10:36.453Z,97.20
2019-05-07T05:13:13.091Z,97.20
2019-05-07T05:15:49.400Z,97.20
2019-05-07T05:18:25.651Z,97.20
2019-05-07T05:21:03.445Z,97.20
2019-05-07T05:23:41.890Z,97.20
2019-05-07T05:26:18.327Z,97.20
2019-05-07T05:28:54.500Z,97.20
2019-05-07T05:31:32.878Z,97.20
2019-05-07T05:34:08.450Z,97.20
2019-05-07T05:36:44.686Z,97.20
2019-05-07T05:39:22.500Z,97.20
2019-05-07T05:42:03.196Z,97.20
2019-05-07T05:44:41.635Z,97.20
2019-05-07T05:47:17.323Z,97.20
2019-05-07T05:49:53.497Z,97.20
2019-05-07T05:52:49.443Z,97.20
2019-05-07T05:55:25.856Z,97.20
2019-05-07T05:58:03.674Z,97.20
2019-05-07T06:00:52.852Z,97.20
2019-05-07T06:03:43.031Z,97.20
2019-05-07T06:06:21.974Z,97.20
2019-05-07T06:09:01.886Z,97.20
2019-05-07T06:11:42.919Z,97.20
2019-05-07T06:14:22.231Z,97.20
2019-05-07T06:17:02.087Z,97.20
2019-05-07T06:19:39.710Z,97.20
2019-05-07T06:22:17.603Z,97.20
2019-05-07T06:24:57.911Z,97.20
2019-05-07T06:27:34.156Z,97.20
2019-05-07T06:30:12.110Z,97.20
2019-05-07T06:32:48.612Z,96.70
2019-05-07T06:35:24.854Z,96.90
2019-05-07T06:38:02.842Z,97.20
2019-05-07T06:40:52.908Z,97.20
2019-05-07T06:43:37.065Z,97.10
2019-05-07T06:46:13.311Z,96.40
2019-05-07T06:48:49.613Z,96.70
2019-05-07T06:51:25.900Z,95.20
2019-05-07T06:54:02.789Z,95.30
2019-05-07T06:56:39.207Z,95.10
2019-05-07T06:59:17.093Z,95.40
2019-05-07T07:02:02.378Z,95.00
2019-05-07T07:04:42.242Z,95.70
2019-05-07T07:07:37.768Z,95.20
2019-05-07T07:10:22.658Z,95.40
2019-05-07T07:12:59.016Z,96.40
2019-05-07T07:15:35.467Z,96.80
2019-05-07T07:18:12.267Z,97.20
2019-05-07T07:20:48.741Z,97.20
2019-05-07T07:23:25.468Z,97.20
2019-05-07T07:26:03.190Z,96.60
2019-05-07T07:28:39.732Z,96.80
2019-05-07T07:31:22.261Z,97.10
2019-05-07T07:34:02.060Z,97.10
2019-05-07T07:36:39.261Z,96.80
2019-05-07T07:39:15.477Z,96.90
2019-05-07T07:41:53.371Z,95.90
2019-05-07T07:44:29.510Z,96.90
2019-05-07T07:47:05.764Z,97.20
2019-05-07T07:49:42.200Z,96.80
2019-05-07T07:52:18.431Z,96.60
2019-05-07T07:54:54.624Z,96.80
2019-05-07T07:57:42.751Z,96.00
2019-05-07T08:00:23.579Z,96.80
2019-05-07T08:03:02.239Z,96.50
2019-05-07T08:05:38.606Z,96.00
2019-05-07T08:08:14.847Z,95.60
2019-05-07T08:10:51.995Z,95.60
2019-05-07T08:13:28.343Z,96.30
2019-05-07T08:16:04.638Z,95.90
2019-05-07T08:18:43.375Z,95.70
2019-05-07T08:21:18.892Z,96.50
2019-05-07T08:23:55.076Z,94.60
2019-05-07T08:26:32.331Z,94.30
2019-05-07T08:29:08.624Z,93.90
2019-05-07T08:31:55.365Z,92.80
2019-05-07T08:34:33.208Z,92.70
2019-05-07T08:37:09.420Z,92.20
2019-05-07T08:39:45.770Z,91.30
2019-05-07T08:42:22.780Z,90.00
2019-05-07T08:45:17.524Z,89.30
2019-05-07T08:47:55.603Z,90.70
2019-05-07T08:50:32.669Z,89.80
2019-05-07T08:53:09.030Z,89.70
2019-05-07T08:55:45.195Z,88.10
2019-05-07T08:58:22.371Z,87.10
2019-05-07T09:00:58.800Z,88.20
2019-05-07T09:03:44.077Z,87.60
2019-05-07T09:06:22.103Z,88.40
2019-05-07T09:08:58.370Z,85.70
2019-05-07T09:11:34.668Z,85.40
2019-05-07T09:14:12.493Z,85.80
2019-05-07T09:16:48.777Z,84.60
2019-05-07T09:19:25.107Z,85.40
2019-05-07T09:22:02.286Z,85.50
2019-05-07T09:24:38.609Z,82.90
2019-05-07T09:27:16.517Z,81.10
2019-05-07T09:29:57.140Z,79.80
2019-05-07T09:32:46.848Z,81.60
2019-05-07T09:35:27.814Z,80.50
2019-05-07T09:38:04.043Z,78.90
2019-05-07T09:40:42.128Z,77.40
2019-05-07T09:43:18.453Z,76.00
2019-05-07T09:45:54.700Z,71.90
2019-05-07T09:48:33.869Z,74.60
2019-05-07T09:51:12.221Z,79.10
2019-05-07T09:53:48.285Z,77.60
2019-05-07T09:56:24.508Z,79.80
2019-05-07T09:59:02.153Z,80.50
2019-05-07T10:01:38.699Z,81.70
2019-05-07T10:04:14.881Z,82.90
2019-05-07T10:06:51.924Z,82.60
2019-05-07T10:09:28.148Z,83.50
2019-05-07T10:12:06.176Z,84.60
2019-05-07T10:14:42.425Z,85.10
2019-05-07T10:17:22.281Z,85.90
2019-05-07T10:19:58.164Z,84.80
2019-05-07T10:22:34.437Z,85.20
2019-05-07T10:25:12.157Z,85.70
2019-05-07T10:27:48.773Z,86.00
2019-05-07T10:30:24.947Z,87.20
2019-05-07T10:33:01.768Z,87.20
2019-05-07T10:35:38.092Z,87.10
2019-05-07T10:38:14.268Z,86.20
2019-05-07T10:40:50.449Z,84.60
2019-05-07T10:43:26.684Z,84.50
2019-05-07T10:46:10.319Z,83.50
2019-05-07T10:48:54.210Z,83.60
2019-05-07T10:51:32.197Z,83.20
2019-05-07T10:54:08.637Z,84.80
2019-05-07T10:56:44.879Z,83.10
2019-05-07T10:59:22.486Z,84.00
2019-05-07T11:02:06.262Z,83.40
2019-05-07T11:04:45.686Z,84.00
2019-05-07T11:07:21.765Z,82.30
2019-05-07T11:09:58.233Z,84.30
2019-05-07T11:12:34.512Z,82.30
2019-05-07T11:15:12.675Z,80.90
2019-05-07T11:17:52.087Z,79.70
2019-05-07T11:20:28.518Z,76.80
2019-05-07T11:23:04.753Z,77.70
2019-05-07T11:25:42.065Z,76.50
2019-05-07T11:28:18.470Z,75.30
2019-05-07T11:30:54.800Z,74.10
2019-05-07T11:33:32.559Z,74.90
2019-05-07T11:36:09.317Z,75.50
2019-05-07T11:38:45.607Z,75.10
2019-05-07T11:41:23.672Z,75.50
2019-05-07T11:44:01.834Z,77.90
2019-05-07T11:46:44.414Z,74.80
2019-05-07T11:49:28.044Z,74.10
2019-05-07T11:52:06.013Z,74.60
2019-05-07T11:54:42.448Z,74.20
2019-05-07T11:57:22.119Z,75.50
2019-05-07T11:59:58.512Z,73.80
2019-05-07T12:02:35.015Z,71.90
2019-05-07T12:05:12.123Z,69.30
2019-05-07T12:07:48.594Z,69.30
2019-05-07T12:10:24.858Z,70.40
2019-05-07T12:13:02.444Z,71.40
2019-05-07T12:15:38.973Z,70.50
2019-05-07T12:18:15.156Z,69.40
2019-05-07T12:20:54.122Z,70.90
2019-05-07T12:23:30.345Z,73.30
2019-05-07T12:26:06.669Z,74.60
2019-05-07T12:28:43.182Z,75.40
2019-05-07T12:31:36.107Z,75.80
2019-05-07T12:34:13.954Z,75.60
2019-05-07T12:36:52.320Z,76.50
2019-05-07T12:39:28.352Z,77.00
2019-05-07T12:42:04.753Z,76.70
2019-05-07T12:44:43.893Z,76.40
2019-05-07T12:47:22.347Z,75.50
2019-05-07T12:49:58.130Z,73.60
2019-05-07T12:52:38.704Z,75.40
2019-05-07T12:55:23.116Z,74.50
2019-05-07T12:57:59.602Z,75.40
2019-05-07T13:00:43.284Z,74.20
2019-05-07T13:03:32.881Z,73.70
2019-05-07T13:06:09.147Z,73.10
2019-05-07T13:08:45.692Z,74.10
2019-05-07T13:11:22.283Z,71.30
2019-05-07T13:13:58.607Z,69.90
2019-05-07T13:16:34.915Z,70.50
2019-05-07T13:19:13.089Z,70.30
2019-05-07T13:21:49.938Z,69.20
2019-05-07T13:24:26.500Z,67.30
2019-05-07T13:27:03.294Z,67.10
2019-05-07T13:29:39.841Z,69.10
2019-05-07T13:32:17.161Z,67.80
2019-05-07T13:34:54.325Z,68.30
2019-05-07T13:37:32.605Z,68.40
2019-05-07T13:40:11.695Z,67.70
2019-05-07T13:43:02.861Z,67.00
2019-05-07T13:45:49.056Z,66.30
2019-05-07T13:48:26.450Z,68.40
2019-05-07T13:51:02.644Z,67.70
2019-05-07T13:53:39.117Z,67.20
2019-05-07T13:56:15.499Z,69.10
2019-05-07T13:58:52.272Z,64.90
2019-05-07T14:01:33.506Z,66.20
2019-05-07T14:04:12.741Z,68.10
2019-05-07T14:06:48.486Z,67.10
2019-05-07T14:09:25.885Z,67.40
2019-05-07T14:12:05.279Z,67.10
2019-05-07T14:14:42.647Z,66.40
2019-05-07T14:17:19.137Z,67.00
2019-05-07T14:19:55.425Z,66.50
2019-05-07T14:22:31.934Z,67.10
2019-05-07T14:25:09.103Z,66.30
2019-05-07T14:27:45.249Z,68.60
2019-05-07T14:30:21.719Z,68.90
2019-05-07T14:33:06.034Z,68.50
2019-05-07T14:35:43.556Z,69.80
2019-05-07T14:38:22.656Z,70.20
2019-05-07T14:41:00.149Z,70.20
2019-05-07T14:43:54.858Z,70.40
2019-05-07T14:46:44.593Z,71.80
2019-05-07T14:49:09.256Z,71.10
2019-05-07T14:51:46.031Z,70.80
2019-05-07T14:54:22.777Z,71.40
2019-05-07T14:56:59.220Z,70.30
2019-05-07T14:59:35.559Z,71.80
2019-05-07T15:02:13.477Z,71.40
2019-05-07T15:04:52.356Z,70.30
2019-05-07T15:07:27.851Z,70.80
2019-05-07T15:10:33.195Z,71.30
2019-05-07T15:13:03.329Z,70.20
2019-05-07T15:15:40.649Z,69.80
2019-05-07T15:18:32.196Z,69.20
2019-05-07T15:21:14.451Z,67.70
2019-05-07T15:24:02.128Z,68.60
2019-05-07T15:26:42.357Z,67.50
2019-05-07T15:29:22.373Z,69.20
2019-05-07T15:32:05.482Z,68.20
2019-05-07T15:34:47.904Z,68.30
2019-05-07T15:37:26.051Z,68.10
2019-05-07T15:43:05.756Z,69.80
2019-05-07T15:45:44.337Z,67.50
2019-05-07T15:48:22.180Z,68.90
2019-05-07T15:51:02.674Z,67.80
2019-05-07T15:53:51.909Z,68.50
2019-05-07T15:56:32.892Z,67.50
2019-05-07T15:59:15.080Z,66.30
2019-05-07T16:02:05.880Z,66.40
2019-05-07T16:04:40.940Z,67.00
2019-05-07T16:07:45.859Z,67.30
2019-05-07T16:10:15.351Z,67.30
2019-05-07T16:12:58.366Z,66.80
2019-05-07T16:15:35.518Z,66.90
2019-05-07T16:18:16.351Z,67.60
2019-05-07T16:21:02.132Z,67.70
2019-05-07T16:23:42.649Z,67.60
2019-05-07T16:26:26.226Z,68.00
2019-05-07T16:29:05.462Z,67.10
2019-05-07T16:31:43.507Z,68.30
2019-05-07T16:34:24.582Z,67.00
2019-05-07T16:37:07.332Z,68.20
2019-05-07T16:39:42.701Z,68.80
2019-05-07T16:42:25.160Z,68.60
2019-05-07T16:45:13.029Z,67.20
2019-05-07T16:47:52.098Z,69.00
2019-05-07T16:50:28.839Z,69.70
2019-05-07T16:53:20.367Z,70.30
2019-05-07T16:55:52.151Z,70.70
2019-05-07T16:58:34.946Z,70.80
2019-05-07T17:01:18.413Z,71.60
2019-05-07T17:03:56.449Z,71.10
2019-05-07T17:06:42.130Z,72.10
2019-05-07T17:09:23.294Z,71.40
2019-05-07T17:12:05.801Z,71.50
2019-05-07T17:14:43.590Z,72.10
2019-05-07T17:17:24.388Z,72.10
2019-05-07T17:20:02.718Z,72.10
2019-05-07T17:22:42.717Z,72.80
2019-05-07T17:25:37.452Z,72.50
2019-05-07T17:28:13.722Z,73.50
2019-05-07T17:30:52.297Z,73.20
2019-05-07T17:33:28.030Z,72.80
2019-05-07T17:36:04.222Z,73.20
2019-05-07T17:38:42.700Z,74.10
2019-05-07T17:41:23.958Z,73.80
2019-05-07T17:43:56.486Z,73.40
2019-05-07T17:46:33.247Z,73.80
2019-05-07T17:49:11.855Z,74.20
2019-05-07T17:51:47.776Z,74.70
2019-05-07T17:54:24.048Z,75.00
2019-05-07T17:57:02.013Z,75.40
2019-05-07T17:59:38.490Z,75.90
2019-05-07T18:02:16.392Z,75.80
2019-05-07T18:04:54.705Z,75.90
2019-05-07T18:07:30.747Z,76.10
2019-05-07T18:10:07.820Z,76.40
2019-05-07T18:12:43.967Z,77.00
2019-05-07T18:15:21.715Z,76.50
2019-05-07T18:18:08.660Z,76.60
2019-05-07T18:20:45.078Z,76.80
2019-05-07T18:23:22.295Z,77.40
2019-05-07T18:25:59.252Z,77.40
2019-05-07T18:28:35.470Z,77.70
2019-05-07T18:31:15.764Z,77.80
2019-05-07T18:33:55.493Z,78.20
2019-05-07T18:36:31.849Z,78.90
2019-05-07T18:39:11.289Z,79.20
2019-05-07T18:41:47.556Z,79.60
2019-05-07T18:44:23.773Z,79.50
2019-05-07T18:47:02.170Z,79.10
2019-05-07T18:49:37.976Z,79.80
2019-05-07T18:52:14.273Z,79.60
2019-05-07T18:54:52.044Z,79.60
2019-05-07T18:57:28.598Z,80.00
2019-05-07T19:00:08.420Z,80.30
2019-05-07T19:02:44.738Z,80.30
2019-05-07T19:05:22.295Z,80.10
2019-05-07T19:08:05.408Z,80.30
2019-05-07T19:10:36.537Z,80.40
2019-05-07T19:13:12.849Z,80.80
2019-05-07T19:15:49.164Z,80.60
2019-05-07T19:18:25.533Z,80.80
2019-05-07T19:21:01.793Z,81.30
2019-05-07T19:23:38.096Z,81.40
2019-05-07T19:26:14.356Z,81.60
2019-05-07T19:28:50.551Z,81.70
2019-05-07T19:31:26.876Z,82.00
2019-05-07T19:34:03.179Z,82.20
2019-05-07T19:36:39.367Z,82.20
2019-05-07T19:39:15.604Z,82.30
2019-05-07T19:41:52.340Z,82.30
2019-05-07T19:44:28.642Z,82.50
2019-05-07T19:47:05.089Z,82.60
2019-05-07T19:49:41.837Z,82.80
2019-05-07T19:52:18.115Z,82.90
2019-05-07T19:55:01.215Z,83.10
2019-05-07T19:57:39.613Z,83.10
2019-05-07T20:00:17.731Z,83.40
2019-05-07T20:02:55.650Z,83.50
2019-05-07T20:05:32.699Z,83.60
2019-05-07T20:08:09.071Z,84.00
2019-05-07T20:10:51.790Z,84.00
2019-05-07T20:13:27.791Z,84.00
2019-05-07T20:16:05.684Z,84.10
2019-05-07T20:18:42.881Z,84.30
2019-05-07T20:21:19.224Z,84.20
2019-05-07T20:23:55.448Z,84.30
2019-05-07T20:26:32.626Z,84.70
2019-05-07T20:29:09.168Z,84.70
2019-05-07T20:31:45.436Z,85.00
2019-05-07T20:34:22.125Z,84.90
2019-05-07T20:36:58.400Z,85.10
2019-05-07T20:39:34.569Z,85.00
2019-05-07T20:42:12.400Z,85.50
2019-05-07T20:44:48.817Z,85.30
2019-05-07T20:47:25.023Z,85.40
2019-05-07T20:50:01.090Z,85.70
2019-05-07T20:52:37.607Z,85.80
2019-05-07T20:55:27.969Z,85.60
2019-05-07T20:57:53.688Z,85.80
2019-05-07T21:00:32.628Z,86.00
2019-05-07T21:03:20.378Z,85.80
2019-05-07T21:05:56.550Z,85.80
2019-05-07T21:08:32.799Z,85.80
2019-05-07T21:11:08.995Z,85.80
2019-05-07T21:13:45.265Z,85.80
2019-05-07T21:16:22.092Z,85.40
2019-05-07T21:18:58.534Z,85.50
2019-05-07T21:21:34.739Z,85.60
2019-05-07T21:24:13.025Z,85.70
2019-05-07T21:26:48.832Z,86.00
2019-05-07T21:29:25.065Z,86.20
2019-05-07T21:32:03.243Z,86.40
2019-05-07T21:34:39.029Z,86.20
2019-05-07T21:37:15.214Z,86.10
2019-05-07T21:39:53.190Z,86.20
2019-05-07T21:42:31.970Z,85.90
2019-05-07T21:45:08.176Z,86.20
2019-05-07T21:47:44.436Z,85.90
2019-05-07T21:50:21.935Z,85.70
2019-05-07T21:52:59.881Z,85.70
2019-05-07T21:55:41.838Z,85.70
2019-05-07T21:58:34.968Z,85.70
2019-05-07T22:01:12.824Z,85.20
2019-05-07T22:03:52.365Z,85.60
2019-05-07T22:06:28.753Z,85.50
2019-05-07T22:09:07.709Z,85.50
2019-05-07T22:11:43.932Z,85.50
2019-05-07T22:14:22.110Z,85.70
2019-05-07T22:16:58.035Z,86.00
2019-05-07T22:19:34.192Z,86.10
2019-05-07T22:22:12.291Z,86.30
2019-05-07T22:24:49.467Z,86.00
2019-05-07T22:27:25.905Z,86.70
2019-05-07T22:30:02.388Z,86.70
2019-05-07T22:32:46.233Z,86.90
2019-05-07T22:35:24.094Z,87.10
2019-05-07T22:38:00.331Z,87.40
2019-05-07T22:40:36.570Z,87.70
2019-05-07T22:43:13.071Z,88.00
2019-05-07T22:45:49.235Z,87.90
2019-05-07T22:48:25.418Z,87.90
2019-05-07T22:51:02.701Z,87.60
2019-05-07T22:53:39.320Z,87.90
2019-05-07T22:56:15.408Z,88.00
2019-05-07T22:58:53.171Z,87.90
2019-05-07T23:01:31.893Z,88.00
2019-05-07T23:04:07.253Z,87.90
2019-05-07T23:06:43.668Z,87.90
2019-05-07T23:09:22.159Z,87.90
2019-05-07T23:11:57.843Z,88.00
2019-05-07T23:14:34.116Z,88.10
2019-05-07T23:17:12.482Z,88.10
2019-05-07T23:19:48.185Z,88.10
2019-05-07T23:22:24.275Z,88.10
2019-05-07T23:25:00.508Z,88.50
2019-05-07T23:27:36.672Z,88.30
2019-05-07T23:30:13.412Z,88.50
2019-05-07T23:32:49.661Z,88.50
2019-05-07T23:35:25.920Z,88.50
2019-05-07T23:38:02.575Z,89.00
2019-05-07T23:40:43.622Z,89.30
2019-05-07T23:43:23.003Z,89.60
2019-05-07T23:45:59.190Z,89.70
2019-05-07T23:48:35.407Z,89.90
2019-05-07T23:51:12.604Z,89.80
2019-05-07T23:53:48.895Z,89.90
2019-05-07T23:56:25.036Z,89.90
2019-05-07T23:59:01.200Z,90.30
